Natalie, Pennsylvania
Current Conditions -  °F | °C
As of 10:53 AM on Thursday 23 Oct 2014 (Local Time) from KSEG Reporting Station
Overcast Overcast  
Wind Chill: 54°   Ceiling: 2700
Heat Index: 54°   Visibility: 10mi
Dew Point: 43°   Wind: 14mph
Humidity: 66%   Direction: 340°NNW
Pressure: 29.91"   Gusts: NA
Location:  40.7952°N, 76.4365°W
Report Text: KSEG 231453Z AUTO 34012KT 10SM OVC027 12/06 A2991 RMK AO2 SLP130 T01220061 50001
Loading
Personal Weather Stations






























Interactive Weather Map
Tropical Storm Tracking
New forecast layout! Learn more

10-Day Weather Forecast

Advertisements
Track Severe Weather on mobile